createdAt,value
2019-02-10T00:00:59.518Z,95907.50
2019-02-10T00:03:27.815Z,95916.97
2019-02-10T00:05:56.113Z,95916.08
2019-02-10T00:08:24.378Z,95905.13
2019-02-10T00:10:52.638Z,95914.29
2019-02-10T00:13:34.252Z,95917.33
2019-02-10T00:16:05.844Z,95926.80
2019-02-10T00:18:35.976Z,95919.84
2019-02-10T00:21:04.277Z,95916.93
2019-02-10T00:23:32.542Z,95917.64
2019-02-10T00:26:00.973Z,95924.92
2019-02-10T00:28:29.315Z,95929.88
2019-02-10T00:30:57.585Z,95925.59
2019-02-10T00:33:25.876Z,95928.31
2019-02-10T00:35:54.140Z,95919.78
2019-02-10T00:38:22.429Z,95918.31
2019-02-10T00:40:50.696Z,95926.30
2019-02-10T00:43:19.028Z,95928.23
2019-02-10T00:45:47.273Z,95928.39
2019-02-10T00:48:15.542Z,95924.56
2019-02-10T00:50:43.840Z,95919.24
2019-02-10T00:53:12.105Z,95922.06
2019-02-10T00:55:40.403Z,95928.17
2019-02-10T00:58:08.672Z,95915.58
2019-02-10T01:00:36.976Z,95919.41
2019-02-10T01:03:05.303Z,95910.97
2019-02-10T01:05:33.569Z,95917.39
2019-02-10T01:08:01.849Z,95913.87
2019-02-10T01:10:30.296Z,95910.59
2019-02-10T01:12:58.573Z,95911.53
2019-02-10T01:15:26.869Z,95904.03
2019-02-10T01:17:55.128Z,95902.47
2019-02-10T01:20:23.454Z,95902.88
2019-02-10T01:22:51.714Z,95901.86
2019-02-10T01:25:19.972Z,95901.40
2019-02-10T01:27:48.298Z,95903.72
2019-02-10T01:30:16.631Z,95903.98
2019-02-10T01:32:44.894Z,95898.91
2019-02-10T01:35:13.664Z,95897.80
2019-02-10T01:37:41.951Z,95897.17
2019-02-10T01:40:10.843Z,95888.64
2019-02-10T01:42:39.131Z,95890.54
2019-02-10T01:45:09.931Z,95894.05
2019-02-10T01:47:38.258Z,95888.52
2019-02-10T01:50:08.857Z,95896.01
2019-02-10T01:52:37.123Z,95899.03
2019-02-10T01:55:08.052Z,95887.33
2019-02-10T01:57:36.315Z,95879.66
2019-02-10T02:00:08.017Z,95877.65
2019-02-10T02:02:36.277Z,95875.30
2019-02-10T02:05:06.407Z,95862.64
2019-02-10T02:07:34.668Z,95867.25
2019-02-10T02:10:02.921Z,95861.87
2019-02-10T02:12:31.221Z,95879.75
2019-02-10T02:14:59.506Z,95887.39
2019-02-10T02:17:27.809Z,95895.52
2019-02-10T02:19:56.080Z,95890.84
2019-02-10T02:22:24.381Z,95875.65
2019-02-10T02:24:52.638Z,95876.90
2019-02-10T02:27:20.924Z,95876.59
2019-02-10T02:29:49.234Z,95887.67
2019-02-10T02:32:17.489Z,95881.64
2019-02-10T02:34:45.771Z,95874.04
2019-02-10T02:37:14.066Z,95873.72
2019-02-10T02:39:42.323Z,95871.84
2019-02-10T02:42:10.616Z,95871.53
2019-02-10T02:44:38.948Z,95858.92
2019-02-10T02:47:07.204Z,95863.34
2019-02-10T02:49:35.463Z,95867.32
2019-02-10T02:52:03.735Z,95868.42
2019-02-10T02:54:31.998Z,95872.92
2019-02-10T02:57:00.272Z,95881.28
2019-02-10T02:59:28.548Z,95872.13
2019-02-10T03:01:56.814Z,95872.88
2019-02-10T03:04:25.106Z,95875.27
2019-02-10T03:06:53.406Z,95862.83
2019-02-10T03:09:21.776Z,95873.46
2019-02-10T03:11:50.036Z,95878.28
2019-02-10T03:14:18.307Z,95873.56
2019-02-10T03:16:46.601Z,95879.16
2019-02-10T03:19:14.875Z,95874.97
2019-02-10T03:21:43.138Z,95875.98
2019-02-10T03:24:11.427Z,95872.75
2019-02-10T03:26:39.711Z,95868.75
2019-02-10T03:29:07.996Z,95879.10
2019-02-10T03:31:36.268Z,95880.44
2019-02-10T03:34:04.780Z,95876.80
2019-02-10T03:36:33.033Z,95875.34
2019-02-10T03:39:01.306Z,95871.14
2019-02-10T03:41:29.606Z,95874.17
2019-02-10T03:43:57.879Z,95869.36
2019-02-10T03:46:26.133Z,95867.14
2019-02-10T03:48:54.426Z,95864.75
2019-02-10T03:51:22.685Z,95865.69
2019-02-10T03:53:50.958Z,95863.37
2019-02-10T03:56:19.226Z,95857.23
2019-02-10T03:58:47.602Z,95862.13
2019-02-10T04:01:15.864Z,95863.82
2019-02-10T04:03:44.255Z,95855.97
2019-02-10T04:06:12.514Z,95847.87
2019-02-10T04:08:40.847Z,95842.98
2019-02-10T04:11:09.096Z,95836.71
2019-02-10T04:13:37.359Z,95834.69
2019-02-10T04:16:05.659Z,95832.63
2019-02-10T04:18:33.981Z,95828.80
2019-02-10T04:21:02.281Z,95826.81
2019-02-10T04:23:31.228Z,95830.77
2019-02-10T04:25:59.534Z,95829.92
2019-02-10T04:28:27.795Z,95823.03
2019-02-10T04:30:56.059Z,95822.81
2019-02-10T04:33:24.359Z,95820.23
2019-02-10T04:35:52.643Z,95813.83
2019-02-10T04:38:20.937Z,95821.13
2019-02-10T04:40:49.195Z,95816.59
2019-02-10T04:43:17.481Z,95810.36
2019-02-10T04:45:45.750Z,95817.29
2019-02-10T04:48:14.040Z,95824.53
2019-02-10T04:50:42.385Z,95825.97
2019-02-10T04:53:10.691Z,95822.67
2019-02-10T04:55:38.946Z,95821.35
2019-02-10T04:58:07.229Z,95822.67
2019-02-10T05:00:35.529Z,95812.01
2019-02-10T05:03:03.815Z,95811.08
2019-02-10T05:05:32.079Z,95796.63
2019-02-10T05:08:00.371Z,95798.55
2019-02-10T05:10:28.650Z,95804.25
2019-02-10T05:12:56.915Z,95803.17
2019-02-10T05:15:25.187Z,95806.94
2019-02-10T05:17:53.469Z,95804.47
2019-02-10T05:20:21.751Z,95812.92
2019-02-10T05:22:50.029Z,95812.14
2019-02-10T05:25:18.317Z,95805.52
2019-02-10T05:27:46.645Z,95803.11
2019-02-10T05:30:14.917Z,95802.78
2019-02-10T05:32:43.177Z,95803.70
2019-02-10T05:35:11.468Z,95797.08
2019-02-10T05:37:39.764Z,95804.31
2019-02-10T05:40:08.041Z,95801.42
2019-02-10T05:42:36.298Z,95801.94
2019-02-10T05:45:06.248Z,95800.78
2019-02-10T05:47:34.501Z,95792.50
2019-02-10T05:50:02.819Z,95792.63
2019-02-10T05:52:31.080Z,95793.52
2019-02-10T05:54:59.347Z,95797.42
2019-02-10T05:57:27.640Z,95797.48
2019-02-10T05:59:55.903Z,95795.52
2019-02-10T06:02:28.583Z,95782.91
2019-02-10T06:04:57.221Z,95784.61
2019-02-10T06:07:25.484Z,95797.69
2019-02-10T06:09:53.773Z,95798.09
2019-02-10T06:12:22.109Z,95794.05
2019-02-10T06:14:50.378Z,95792.08
2019-02-10T06:17:18.631Z,95803.45
2019-02-10T06:19:46.906Z,95797.11
2019-02-10T06:22:15.165Z,95785.41
2019-02-10T06:24:43.440Z,95788.44
2019-02-10T06:27:11.708Z,95787.97
2019-02-10T06:29:40.023Z,95789.70
2019-02-10T06:32:08.269Z,95790.98
2019-02-10T06:34:36.539Z,95792.24
2019-02-10T06:37:04.818Z,95790.27
2019-02-10T06:39:33.095Z,95787.75
2019-02-10T06:42:01.387Z,95792.03
2019-02-10T06:44:29.651Z,95783.73
2019-02-10T06:46:57.933Z,95793.95
2019-02-10T06:49:26.183Z,95782.67
2019-02-10T06:51:54.458Z,95784.84
2019-02-10T06:54:22.727Z,95781.95
2019-02-10T06:56:51.038Z,95771.17
2019-02-10T06:59:23.566Z,95769.73
2019-02-10T07:01:56.489Z,95767.34
2019-02-10T07:04:24.786Z,95768.28
2019-02-10T07:06:53.048Z,95766.05
2019-02-10T07:09:23.016Z,95767.84
2019-02-10T07:11:51.272Z,95769.86
2019-02-10T07:14:28.711Z,95769.63
2019-02-10T07:17:15.343Z,95768.63
2019-02-10T07:20:20.039Z,95766.91
2019-02-10T07:22:51.553Z,95775.38
2019-02-10T07:25:39.804Z,95762.18
2019-02-10T07:28:11.321Z,95761.51
2019-02-10T07:30:57.937Z,95760.19
2019-02-10T07:33:50.936Z,95759.69
2019-02-10T07:36:31.099Z,95764.16
2019-02-10T07:39:14.607Z,95757.23
2019-02-10T07:42:15.201Z,95762.84
2019-02-10T07:45:01.842Z,95759.75
2019-02-10T07:47:48.306Z,95764.22
2019-02-10T07:50:28.676Z,95763.02
2019-02-10T07:53:02.921Z,95753.09
2019-02-10T07:55:58.543Z,95755.50
2019-02-10T07:58:53.539Z,95762.42
2019-02-10T08:01:25.122Z,95756.33
2019-02-10T08:04:11.794Z,95757.77
2019-02-10T08:06:46.081Z,95754.60
2019-02-10T08:09:20.423Z,95750.27
2019-02-10T08:11:51.977Z,95748.59
2019-02-10T08:14:44.322Z,95749.03
2019-02-10T08:17:32.250Z,95746.56
2019-02-10T08:20:13.131Z,95730.46
2019-02-10T08:22:50.795Z,95727.47
2019-02-10T08:25:34.645Z,95732.48
2019-02-10T08:28:12.167Z,95724.73
2019-02-10T08:30:49.698Z,95723.09
2019-02-10T08:33:24.153Z,95717.68
2019-02-10T08:36:13.036Z,95720.70
2019-02-10T08:38:54.283Z,95720.02
2019-02-10T08:41:36.342Z,95715.50
2019-02-10T08:44:23.726Z,95708.08
2019-02-10T08:47:10.126Z,95712.81
2019-02-10T08:49:58.084Z,95706.52
2019-02-10T08:52:29.634Z,95703.40
2019-02-10T08:54:58.761Z,95707.65
2019-02-10T08:57:27.050Z,95696.00
2019-02-10T08:59:55.308Z,95684.78
2019-02-10T09:02:23.569Z,95684.37
2019-02-10T09:04:51.863Z,95679.21
2019-02-10T09:07:20.120Z,95681.39
2019-02-10T09:09:48.406Z,95679.62
2019-02-10T09:12:16.671Z,95677.84
2019-02-10T09:14:44.949Z,95675.00
2019-02-10T09:17:13.223Z,95673.97
2019-02-10T09:19:41.507Z,95664.98
2019-02-10T09:22:09.759Z,95654.25
2019-02-10T09:24:39.326Z,95658.57
2019-02-10T09:27:07.708Z,95647.30
2019-02-10T09:29:35.968Z,95646.98
2019-02-10T09:32:04.273Z,95650.03
2019-02-10T09:34:32.526Z,95641.19
2019-02-10T09:37:00.828Z,95644.53
2019-02-10T09:39:29.079Z,95647.63
2019-02-10T09:41:57.364Z,95643.06
2019-02-10T09:44:25.621Z,95641.91
2019-02-10T09:46:53.913Z,95633.48
2019-02-10T09:49:22.178Z,95623.40
2019-02-10T09:51:50.460Z,95617.14
2019-02-10T09:54:18.722Z,95620.24
2019-02-10T09:56:47.017Z,95610.75
2019-02-10T09:59:15.274Z,95608.39
2019-02-10T10:01:43.581Z,95602.32
2019-02-10T10:04:11.843Z,95596.78
2019-02-10T10:06:40.103Z,95592.38
2019-02-10T10:09:08.383Z,95580.38
2019-02-10T10:11:36.642Z,95578.17
2019-02-10T10:14:04.913Z,95573.16
2019-02-10T10:16:33.165Z,95579.11
2019-02-10T10:19:01.435Z,95579.05
2019-02-10T10:21:29.693Z,95562.00
2019-02-10T10:23:57.975Z,95569.24
2019-02-10T10:26:26.260Z,95578.00
2019-02-10T10:28:54.519Z,95564.33
2019-02-10T10:31:22.814Z,95557.25
2019-02-10T10:33:51.103Z,95544.61
2019-02-10T10:36:19.367Z,95544.02
2019-02-10T10:38:47.682Z,95532.88
2019-02-10T10:41:15.942Z,95524.59
2019-02-10T10:43:44.209Z,95519.19
2019-02-10T10:46:12.505Z,95508.36
2019-02-10T10:48:40.767Z,95498.73
2019-02-10T10:51:09.041Z,95504.87
2019-02-10T10:53:37.333Z,95493.44
2019-02-10T10:56:05.635Z,95482.87
2019-02-10T10:58:33.894Z,95477.61
2019-02-10T11:01:02.186Z,95469.70
2019-02-10T11:03:30.446Z,95470.12
2019-02-10T11:05:58.741Z,95457.80
2019-02-10T11:08:27.022Z,95453.55
2019-02-10T11:10:55.312Z,95442.66
2019-02-10T11:13:23.580Z,95432.45
2019-02-10T11:15:51.861Z,95427.78
2019-02-10T11:18:20.158Z,95413.72
2019-02-10T11:20:48.484Z,95414.88
2019-02-10T11:23:16.776Z,95417.91
2019-02-10T11:25:45.030Z,95399.14
2019-02-10T11:28:14.038Z,95400.61
2019-02-10T11:30:43.729Z,95398.19
2019-02-10T11:33:12.041Z,95397.78
2019-02-10T11:35:40.303Z,95394.40
2019-02-10T11:38:08.601Z,95398.61
2019-02-10T11:40:36.869Z,95380.39
2019-02-10T11:43:05.135Z,95379.45
2019-02-10T11:45:33.432Z,95371.87
2019-02-10T11:48:01.700Z,95367.41
2019-02-10T11:50:29.988Z,95355.38
2019-02-10T11:52:58.237Z,95344.59
2019-02-10T11:55:26.534Z,95346.45
2019-02-10T11:57:54.826Z,95349.13
2019-02-10T12:00:23.093Z,95347.80
2019-02-10T12:02:51.381Z,95346.28
2019-02-10T12:05:19.645Z,95342.99
2019-02-10T12:07:47.922Z,95344.55
2019-02-10T12:10:16.228Z,95327.27
2019-02-10T12:12:44.494Z,95327.24
2019-02-10T12:15:14.756Z,95318.27
2019-02-10T12:17:43.044Z,95319.89
2019-02-10T12:20:13.843Z,95307.66
2019-02-10T12:22:49.653Z,95309.64
2019-02-10T12:25:12.218Z,95299.63
2019-02-10T12:27:40.533Z,95297.52
2019-02-10T12:30:14.027Z,95299.31
2019-02-10T12:32:42.285Z,95302.56
2019-02-10T12:35:11.680Z,95300.77
2019-02-10T12:37:39.970Z,95301.19
2019-02-10T12:40:09.567Z,95294.06
2019-02-10T12:42:37.869Z,95286.67
2019-02-10T12:45:08.468Z,95286.94
2019-02-10T12:47:36.751Z,95283.68
2019-02-10T12:50:13.228Z,95268.67
2019-02-10T12:52:41.577Z,95278.53
2019-02-10T12:55:11.203Z,95271.57
2019-02-10T12:57:39.471Z,95262.96
2019-02-10T13:00:14.132Z,95269.02
2019-02-10T13:02:42.414Z,95256.55
2019-02-10T13:05:10.682Z,95252.60
2019-02-10T13:07:38.950Z,95255.98
2019-02-10T13:10:16.498Z,95247.65
2019-02-10T13:12:44.870Z,95251.25
2019-02-10T13:15:13.630Z,95238.42
2019-02-10T13:17:41.903Z,95226.98
2019-02-10T13:20:14.429Z,95226.37
2019-02-10T13:22:42.690Z,95225.45
2019-02-10T13:25:12.104Z,95219.56
2019-02-10T13:27:40.391Z,95206.55
2019-02-10T13:30:19.223Z,95211.18
2019-02-10T13:32:47.496Z,95204.75
2019-02-10T13:35:15.768Z,95194.77
2019-02-10T13:37:44.042Z,95207.37
2019-02-10T13:40:40.557Z,95192.20
2019-02-10T13:43:08.862Z,95185.57
2019-02-10T13:45:37.121Z,95186.35
2019-02-10T13:48:05.426Z,95187.95
2019-02-10T13:50:33.682Z,95187.80
2019-02-10T13:53:01.986Z,95183.40
2019-02-10T13:55:30.250Z,95169.44
2019-02-10T13:57:58.515Z,95162.97
2019-02-10T14:00:26.844Z,95177.45
2019-02-10T14:02:55.104Z,95171.16
2019-02-10T14:05:23.365Z,95159.71
2019-02-10T14:07:51.658Z,95154.89
2019-02-10T14:10:25.279Z,95165.80
2019-02-10T14:12:49.925Z,95158.45
2019-02-10T14:15:19.567Z,95155.56
2019-02-10T14:17:47.830Z,95134.03
2019-02-10T14:20:19.960Z,95140.07
2019-02-10T14:22:48.249Z,95137.28
2019-02-10T14:25:16.573Z,95133.58
2019-02-10T14:27:44.828Z,95118.45
2019-02-10T14:30:18.591Z,95118.13
2019-02-10T14:32:46.898Z,95113.50
2019-02-10T14:35:15.161Z,95107.14
2019-02-10T14:37:43.446Z,95104.29
2019-02-10T14:40:12.185Z,95104.89
2019-02-10T14:42:40.441Z,95112.23
2019-02-10T14:45:15.623Z,95110.20
2019-02-10T14:47:43.885Z,95111.59
2019-02-10T14:50:14.975Z,95093.02
2019-02-10T14:52:43.229Z,95085.84
2019-02-10T14:55:11.517Z,95081.19
2019-02-10T14:57:39.805Z,95076.97
2019-02-10T15:00:11.233Z,95073.59
2019-02-10T15:02:39.489Z,95080.84
2019-02-10T15:05:08.020Z,95068.57
2019-02-10T15:07:36.319Z,95074.06
2019-02-10T15:10:07.268Z,95069.82
2019-02-10T15:12:35.541Z,95075.34
2019-02-10T15:15:04.678Z,95071.92
2019-02-10T15:17:32.968Z,95066.86
2019-02-10T15:20:01.313Z,95065.12
2019-02-10T15:22:29.577Z,95072.72
2019-02-10T15:24:57.837Z,95068.45
2019-02-10T15:27:26.134Z,95066.73
2019-02-10T15:29:54.418Z,95071.38
2019-02-10T15:32:22.676Z,95057.86
2019-02-10T15:34:50.948Z,95054.05
2019-02-10T15:37:19.247Z,95052.78
2019-02-10T15:39:47.505Z,95055.71
2019-02-10T15:42:15.790Z,95047.25
2019-02-10T15:44:45.675Z,95051.03
2019-02-10T15:47:14.126Z,95048.50
2019-02-10T15:49:42.375Z,95043.02
2019-02-10T15:52:10.632Z,95042.15
2019-02-10T15:54:38.936Z,95040.04
2019-02-10T15:57:07.194Z,95029.88
2019-02-10T15:59:35.449Z,95034.94
2019-02-10T16:02:03.741Z,95025.59
2019-02-10T16:04:31.999Z,95031.05
2019-02-10T16:07:00.268Z,95024.32
2019-02-10T16:09:28.588Z,95024.71
2019-02-10T16:11:56.859Z,95018.39
2019-02-10T16:14:25.113Z,95021.77
2019-02-10T16:16:53.405Z,95011.15
2019-02-10T16:19:21.664Z,95001.05
2019-02-10T16:21:49.958Z,95015.43
2019-02-10T16:24:18.244Z,94994.66
2019-02-10T16:26:46.527Z,94993.80
2019-02-10T16:29:14.788Z,95008.56
2019-02-10T16:31:43.075Z,94991.66
2019-02-10T16:34:11.361Z,94984.95
2019-02-10T16:36:39.619Z,94999.70
2019-02-10T16:39:09.563Z,95001.81
2019-02-10T16:41:37.819Z,94971.41
2019-02-10T16:44:06.116Z,94990.39
2019-02-10T16:46:36.193Z,94977.30
2019-02-10T16:49:04.484Z,94968.84
2019-02-10T16:51:32.788Z,94963.36
2019-02-10T16:54:01.037Z,94961.67
2019-02-10T16:56:29.327Z,94946.88
2019-02-10T16:58:57.632Z,94943.08
2019-02-10T17:01:25.882Z,94934.64
2019-02-10T17:03:54.139Z,94934.23
2019-02-10T17:06:22.419Z,94929.56
2019-02-10T17:08:50.672Z,94924.10
2019-02-10T17:11:18.956Z,94915.20
2019-02-10T17:13:47.210Z,94916.08
2019-02-10T17:16:15.498Z,94907.23
2019-02-10T17:18:43.753Z,94908.89
2019-02-10T17:21:12.010Z,94902.97
2019-02-10T17:23:40.303Z,94896.66
2019-02-10T17:26:08.629Z,94898.76
2019-02-10T17:28:36.892Z,94896.20
2019-02-10T17:31:05.153Z,94902.95
2019-02-10T17:33:33.442Z,94902.09
2019-02-10T17:36:01.706Z,94910.98
2019-02-10T17:38:30.028Z,94910.98
2019-02-10T17:41:04.660Z,94898.73
2019-02-10T17:43:32.956Z,94894.05
2019-02-10T17:46:01.219Z,94888.55
2019-02-10T17:48:29.477Z,94878.84
2019-02-10T17:50:57.838Z,94875.05
2019-02-10T17:53:26.198Z,94869.50
2019-02-10T17:55:54.463Z,94853.88
2019-02-10T17:58:22.748Z,94858.08
2019-02-10T18:00:51.673Z,94842.03
2019-02-10T18:03:19.958Z,94836.13
2019-02-10T18:05:48.269Z,94836.95
2019-02-10T18:08:16.528Z,94836.13
2019-02-10T18:10:44.793Z,94830.19
2019-02-10T18:13:13.081Z,94827.63
2019-02-10T18:15:45.763Z,94822.56
2019-02-10T18:18:24.212Z,94822.58
2019-02-10T18:21:10.355Z,94824.23
2019-02-10T18:23:49.485Z,94806.09
2019-02-10T18:26:19.417Z,94815.38
2019-02-10T18:28:52.006Z,94803.55
2019-02-10T18:31:28.157Z,94803.13
2019-02-10T18:34:00.718Z,94791.73
2019-02-10T18:36:33.412Z,94795.55
2019-02-10T18:39:21.776Z,94778.28
2019-02-10T18:41:57.970Z,94772.39
2019-02-10T18:44:42.814Z,94774.05
2019-02-10T18:47:21.408Z,94770.70
2019-02-10T18:49:57.041Z,94766.47
2019-02-10T18:52:29.401Z,94756.78
2019-02-10T18:55:15.464Z,94758.02
2019-02-10T18:57:45.356Z,94746.22
2019-02-10T19:00:23.877Z,94735.70
2019-02-10T19:02:59.760Z,94719.25
2019-02-10T19:05:29.695Z,94747.48
2019-02-10T19:08:11.691Z,94730.20
2019-02-10T19:10:44.584Z,94727.26
2019-02-10T19:13:16.904Z,94728.09
2019-02-10T19:16:01.838Z,94720.53
2019-02-10T19:18:43.834Z,94709.98
2019-02-10T19:21:13.729Z,94711.69
2019-02-10T19:23:43.895Z,94693.97
2019-02-10T19:26:16.510Z,94698.21
2019-02-10T19:28:52.420Z,94677.12
2019-02-10T19:31:22.322Z,94665.30
2019-02-10T19:33:52.274Z,94659.82
2019-02-10T19:36:40.197Z,94652.67
2019-02-10T19:39:16.086Z,94641.28
2019-02-10T19:41:55.843Z,94625.66
2019-02-10T19:44:25.828Z,94629.86
2019-02-10T19:47:01.309Z,94614.70
2019-02-10T19:49:31.240Z,94615.97
2019-02-10T19:52:01.166Z,94614.69
2019-02-10T19:54:33.606Z,94608.78
2019-02-10T19:57:03.540Z,94604.14
2019-02-10T19:59:48.549Z,94607.94
2019-02-10T20:02:24.384Z,94608.80
2019-02-10T20:05:00.256Z,94602.03
2019-02-10T20:07:42.443Z,94595.70
2019-02-10T20:10:30.511Z,94591.91
2019-02-10T20:13:18.678Z,94594.44
2019-02-10T20:15:51.182Z,94596.56
2019-02-10T20:18:29.824Z,94587.67
2019-02-10T20:21:02.221Z,94580.09
2019-02-10T20:23:40.960Z,94572.08
2019-02-10T20:26:16.661Z,94574.61
2019-02-10T20:29:04.418Z,94578.41
2019-02-10T20:31:43.486Z,94572.08
2019-02-10T20:34:31.799Z,94567.44
2019-02-10T20:37:16.924Z,94552.67
2019-02-10T20:39:58.824Z,94548.02
2019-02-10T20:42:31.621Z,94556.05
2019-02-10T20:45:01.524Z,94566.18
2019-02-10T20:47:34.129Z,94553.11
2019-02-10T20:50:15.573Z,94545.09
2019-02-10T20:52:46.508Z,94534.97
2019-02-10T20:55:16.594Z,94542.55
2019-02-10T20:57:46.528Z,94550.16
2019-02-10T21:00:25.194Z,94538.76
2019-02-10T21:02:55.119Z,94533.28
2019-02-10T21:05:40.917Z,94540.86
2019-02-10T21:08:10.843Z,94551.43
2019-02-10T21:10:50.496Z,94551.41
2019-02-10T21:13:26.513Z,94526.95
2019-02-10T21:16:12.871Z,94536.23
2019-02-10T21:18:42.779Z,94525.69
2019-02-10T21:21:12.675Z,94518.10
2019-02-10T21:23:45.292Z,94511.77
2019-02-10T21:26:21.018Z,94498.27
2019-02-10T21:28:50.933Z,94494.05
2019-02-10T21:31:20.828Z,94499.94
2019-02-10T21:33:53.475Z,94489.39
2019-02-10T21:36:29.497Z,94482.20
2019-02-10T21:39:14.566Z,94473.34
2019-02-10T21:41:44.475Z,94471.25
2019-02-10T21:44:23.478Z,94485.59
2019-02-10T21:46:53.373Z,94473.34
2019-02-10T21:49:21.915Z,94467.44
2019-02-10T21:51:50.193Z,94466.56
2019-02-10T21:54:18.566Z,94466.15
2019-02-10T21:56:46.820Z,94461.52
2019-02-10T21:59:15.076Z,94458.54
2019-02-10T22:01:43.374Z,94458.14
2019-02-10T22:04:12.314Z,94459.83
2019-02-10T22:06:40.570Z,94466.14
2019-02-10T22:09:08.833Z,94468.23
2019-02-10T22:11:37.129Z,94453.88
2019-02-10T22:14:05.454Z,94436.58
2019-02-10T22:16:33.715Z,94435.72
2019-02-10T22:19:01.966Z,94444.59
2019-02-10T22:21:30.255Z,94439.94
2019-02-10T22:23:58.580Z,94442.06
2019-02-10T22:26:26.870Z,94425.14
2019-02-10T22:28:55.396Z,94418.82
2019-02-10T22:31:23.650Z,94418.38
2019-02-10T22:33:51.905Z,94420.08
2019-02-10T22:36:20.167Z,94402.33
2019-02-10T22:38:48.423Z,94408.25
2019-02-10T22:41:16.749Z,94409.95
2019-02-10T22:43:45.006Z,94396.43
2019-02-10T22:46:13.305Z,94400.20
2019-02-10T22:48:41.557Z,94410.34
2019-02-10T22:51:10.192Z,94399.37
2019-02-10T22:53:38.556Z,94396.38
2019-02-10T22:56:06.811Z,94400.19
2019-02-10T22:58:35.098Z,94395.52
2019-02-10T23:01:04.076Z,94402.69
2019-02-10T23:03:32.423Z,94398.46
2019-02-10T23:06:00.671Z,94383.26
2019-02-10T23:08:28.932Z,94397.63
2019-02-10T23:10:57.267Z,94401.42
2019-02-10T23:13:25.582Z,94398.46
2019-02-10T23:15:53.842Z,94395.90
2019-02-10T23:18:22.116Z,94388.30
2019-02-10T23:20:50.413Z,94397.16
2019-02-10T23:23:18.834Z,94397.63
2019-02-10T23:25:47.090Z,94397.63
2019-02-10T23:28:15.363Z,94399.70
2019-02-10T23:30:43.645Z,94395.90
2019-02-10T23:33:12.012Z,94390.44
2019-02-10T23:35:40.299Z,94384.50
2019-02-10T23:38:08.590Z,94387.00
2019-02-10T23:40:36.876Z,94375.17
2019-02-10T23:43:05.202Z,94376.03
2019-02-10T23:45:33.491Z,94373.07
2019-02-10T23:48:01.752Z,94370.53
2019-02-10T23:50:30.002Z,94372.23
2019-02-10T23:52:58.331Z,94371.83
2019-02-10T23:55:26.601Z,94362.94
2019-02-10T23:57:54.855Z,94358.70
